createdAt,value
2023-05-11T00:00:36.808Z,14.93
2023-05-11T00:05:00.127Z,16.02
2023-05-11T00:09:26.324Z,15.82
2023-05-11T00:13:34.046Z,17.35
2023-05-11T00:17:51.302Z,18.17
2023-05-11T00:22:06.352Z,18.42
2023-05-11T00:26:16.431Z,19.23
2023-05-11T00:30:26.077Z,19.98
2023-05-11T00:35:32.667Z,20.20
2023-05-11T00:40:10.199Z,19.45
2023-05-11T00:49:36.322Z,20.00
2023-05-11T00:53:56.330Z,19.55
2023-05-11T00:58:32.621Z,19.75
2023-05-11T01:02:53.639Z,19.85
2023-05-11T01:07:20.037Z,19.48
2023-05-11T01:12:30.514Z,20.60
2023-05-11T01:16:59.262Z,20.55
2023-05-11T01:21:22.304Z,19.77
2023-05-11T01:31:00.327Z,19.35
2023-05-11T01:35:33.210Z,20.23
2023-05-11T01:39:39.360Z,20.02
2023-05-11T01:43:45.811Z,21.55
2023-05-11T01:47:59.789Z,21.65
2023-05-11T01:52:07.504Z,21.65
2023-05-11T01:56:13.926Z,21.13
2023-05-11T02:00:18.846Z,23.60
2023-05-11T02:04:26.438Z,23.33
2023-05-11T02:08:32.751Z,23.50
2023-05-11T02:12:37.706Z,23.70
2023-05-11T02:16:44.089Z,24.13
2023-05-11T02:20:49.850Z,25.42
2023-05-11T02:24:54.972Z,25.90
2023-05-11T02:29:02.960Z,23.30
2023-05-11T02:33:10.288Z,25.85
2023-05-11T02:37:51.517Z,27.40
2023-05-11T02:42:02.317Z,26.98
2023-05-11T02:46:41.123Z,26.48
2023-05-11T02:56:10.091Z,28.38
2023-05-11T03:00:30.307Z,27.00
2023-05-11T03:04:46.843Z,27.15
2023-05-11T03:09:10.974Z,28.50
2023-05-11T03:13:30.799Z,28.30
2023-05-11T03:17:53.194Z,28.83
2023-05-11T03:26:41.036Z,29.23
2023-05-11T03:30:50.951Z,27.40
2023-05-11T03:34:57.287Z,27.98
2023-05-11T03:39:03.268Z,28.52
2023-05-11T03:43:12.589Z,28.50
2023-05-11T03:47:18.730Z,28.63
2023-05-11T03:51:22.088Z,29.83
2023-05-11T03:55:24.921Z,29.83
2023-05-11T03:59:27.642Z,28.55
2023-05-11T04:03:35.924Z,29.58
2023-05-11T04:07:40.481Z,30.35
2023-05-11T04:11:43.340Z,30.45
2023-05-11T04:15:46.046Z,30.00
2023-05-11T04:19:50.202Z,29.98
2023-05-11T04:23:53.522Z,29.65
2023-05-11T04:27:56.243Z,30.15
2023-05-11T04:31:59.145Z,29.42
2023-05-11T04:36:06.060Z,29.65
2023-05-11T04:40:10.224Z,29.00
2023-05-11T04:44:16.472Z,29.60
2023-05-11T04:48:20.858Z,29.92
2023-05-11T04:52:25.504Z,29.80
2023-05-11T04:56:28.670Z,28.20
2023-05-11T05:00:31.477Z,30.27
2023-05-11T05:04:36.280Z,29.13
2023-05-11T05:08:40.594Z,28.42
2023-05-11T05:12:43.341Z,28.63
2023-05-11T05:16:46.113Z,28.85
2023-05-11T05:20:49.312Z,29.52
2023-05-11T05:24:53.573Z,29.98
2023-05-11T05:28:56.535Z,30.17
2023-05-11T05:32:59.370Z,30.70
2023-05-11T05:37:02.194Z,29.48
2023-05-11T05:41:06.933Z,30.52
2023-05-11T05:45:14.881Z,33.08
2023-05-11T05:49:18.243Z,32.40
2023-05-11T05:53:21.120Z,31.52
2023-05-11T05:57:25.443Z,31.30
2023-05-11T06:01:29.744Z,32.38
2023-05-11T06:05:32.697Z,31.52
2023-05-11T06:09:39.045Z,31.48
2023-05-11T06:13:43.264Z,30.10
2023-05-11T06:17:46.661Z,29.55
2023-05-11T06:21:49.500Z,30.63
2023-05-11T06:25:52.676Z,31.63
2023-05-11T06:29:57.954Z,33.45
2023-05-11T06:34:04.100Z,32.03
2023-05-11T06:38:07.970Z,28.45
2023-05-11T06:42:12.416Z,28.88
2023-05-11T06:46:17.930Z,28.27
2023-05-11T06:50:21.610Z,27.95
2023-05-11T06:54:24.646Z,27.77
2023-05-11T06:58:27.815Z,27.02
2023-05-11T07:02:32.249Z,26.55
2023-05-11T07:06:36.023Z,24.17
2023-05-11T07:10:38.767Z,24.60
2023-05-11T07:14:42.137Z,29.63
2023-05-11T07:18:46.183Z,34.90
2023-05-11T07:22:49.047Z,35.28
2023-05-11T07:26:51.953Z,35.22
2023-05-11T07:30:54.753Z,34.10
2023-05-11T07:34:58.847Z,33.85
2023-05-11T07:39:01.570Z,36.10
2023-05-11T07:43:04.303Z,32.50
2023-05-11T07:47:07.019Z,34.50
2023-05-11T07:51:11.068Z,35.83
2023-05-11T07:55:13.885Z,35.95
2023-05-11T07:59:16.661Z,38.17
2023-05-11T08:03:19.408Z,38.17
2023-05-11T08:07:23.732Z,36.85
2023-05-11T08:11:27.528Z,38.22
2023-05-11T08:15:30.766Z,38.63
2023-05-11T08:19:33.495Z,37.78
2023-05-11T08:23:37.526Z,36.75
2023-05-11T08:27:40.441Z,34.42
2023-05-11T08:31:43.227Z,35.95
2023-05-11T08:35:46.262Z,37.33
2023-05-11T08:39:51.426Z,36.47
2023-05-11T08:43:57.357Z,35.20
2023-05-11T08:48:00.204Z,35.35
2023-05-11T08:52:07.790Z,34.65
2023-05-11T08:56:13.421Z,35.00
2023-05-11T09:00:17.330Z,34.95
2023-05-11T09:04:21.494Z,34.72
2023-05-11T09:08:26.346Z,34.15
2023-05-11T09:12:31.055Z,33.60
2023-05-11T09:16:37.555Z,32.20
2023-05-11T09:20:45.107Z,31.13
2023-05-11T09:24:48.791Z,32.17
2023-05-11T09:29:02.948Z,33.55
2023-05-11T09:33:07.443Z,33.78
2023-05-11T09:37:18.310Z,34.00
2023-05-11T09:41:21.860Z,34.58
2023-05-11T09:45:39.886Z,35.33
2023-05-11T09:49:44.010Z,33.20
2023-05-11T09:53:46.738Z,34.25
2023-05-11T09:57:55.745Z,33.15
2023-05-11T10:02:17.640Z,34.08
2023-05-11T10:06:20.703Z,33.55
2023-05-11T10:10:23.876Z,32.47
2023-05-11T10:14:29.388Z,31.38
2023-05-11T10:18:34.264Z,33.03
2023-05-11T10:22:37.690Z,32.15
2023-05-11T10:26:40.925Z,32.85
2023-05-11T10:30:44.652Z,34.95
2023-05-11T10:34:50.493Z,34.95
2023-05-11T10:38:53.296Z,36.42
2023-05-11T10:43:28.807Z,38.50
2023-05-11T10:48:11.607Z,38.72
2023-05-11T10:52:30.658Z,36.13
2023-05-11T10:56:57.914Z,38.83
2023-05-11T11:01:37.760Z,37.78
2023-05-11T11:05:43.711Z,36.13
2023-05-11T11:09:57.258Z,35.88
2023-05-11T11:14:03.531Z,38.15
2023-05-11T11:18:28.000Z,37.17
2023-05-11T11:22:46.818Z,34.78
2023-05-11T11:26:51.813Z,31.48
2023-05-11T11:31:23.829Z,33.22
2023-05-11T11:35:46.275Z,34.03
2023-05-11T11:40:06.005Z,32.40
2023-05-11T11:44:23.957Z,33.47
2023-05-11T11:48:35.390Z,33.60
2023-05-11T11:52:38.104Z,31.60
2023-05-11T11:56:43.587Z,30.45
2023-05-11T12:00:50.169Z,29.00
2023-05-11T12:04:57.011Z,25.42
2023-05-11T12:08:59.891Z,25.40
2023-05-11T12:13:02.848Z,22.60
2023-05-11T12:17:13.487Z,23.13
2023-05-11T12:21:20.837Z,22.65
2023-05-11T12:25:23.918Z,22.00
2023-05-11T12:29:27.512Z,20.80
2023-05-11T12:33:31.696Z,19.42
2023-05-11T12:37:34.589Z,18.02
2023-05-11T12:41:38.306Z,16.83
2023-05-11T12:45:41.216Z,17.85
2023-05-11T12:49:46.113Z,21.30
2023-05-11T12:53:48.984Z,14.70
2023-05-11T12:57:54.535Z,15.15
2023-05-11T13:02:05.403Z,14.82
2023-05-11T13:06:10.483Z,13.90
2023-05-11T13:10:14.158Z,11.52
2023-05-11T13:14:18.442Z,10.13
2023-05-11T13:18:21.621Z,8.73
2023-05-11T13:22:25.908Z,9.52
2023-05-11T13:26:31.476Z,9.50
2023-05-11T13:30:35.314Z,9.75
2023-05-11T13:34:38.711Z,7.82
2023-05-11T13:38:43.199Z,7.90
2023-05-11T13:42:45.991Z,8.73
2023-05-11T13:46:48.919Z,8.52
2023-05-11T13:50:52.050Z,9.43
2023-05-11T13:54:56.346Z,7.65
2023-05-11T13:59:00.101Z,7.38
2023-05-11T14:03:03.979Z,5.57
2023-05-11T14:07:06.917Z,5.38
2023-05-11T14:11:11.035Z,3.72
2023-05-11T14:15:13.986Z,4.28
2023-05-11T14:19:17.100Z,2.47
2023-05-11T14:23:20.016Z,2.60
2023-05-11T14:27:24.454Z,2.25
2023-05-11T14:31:27.568Z,3.03
2023-05-11T14:35:30.671Z,2.70
2023-05-11T14:39:33.428Z,3.53
2023-05-11T14:43:39.704Z,3.22
2023-05-11T14:47:42.548Z,3.60
2023-05-11T14:51:45.487Z,2.80
2023-05-11T14:55:48.332Z,3.42
2023-05-11T14:59:59.717Z,3.08
2023-05-11T15:04:04.029Z,3.40
2023-05-11T15:08:15.321Z,3.25
2023-05-11T15:12:21.334Z,2.92
2023-05-11T15:16:26.003Z,3.10
2023-05-11T15:20:28.933Z,2.85
2023-05-11T15:24:31.934Z,3.08
2023-05-11T15:28:34.789Z,3.20
2023-05-11T15:32:42.820Z,3.40
2023-05-11T15:36:48.517Z,2.75
2023-05-11T15:40:52.374Z,2.88
2023-05-11T15:44:57.784Z,3.33
2023-05-11T15:49:09.566Z,3.28
2023-05-11T15:53:20.268Z,3.58
2023-05-11T15:57:25.816Z,4.10
2023-05-11T16:01:30.693Z,4.50
2023-05-11T16:06:01.332Z,5.35
2023-05-11T16:10:42.443Z,5.75
2023-05-11T16:14:56.265Z,5.80
2023-05-11T16:19:10.008Z,6.63
2023-05-11T16:23:52.068Z,6.65
2023-05-11T16:28:20.955Z,6.80
2023-05-11T16:32:37.031Z,5.80
2023-05-11T16:36:44.798Z,5.22
2023-05-11T16:41:08.982Z,5.82
2023-05-11T16:45:18.450Z,5.35
2023-05-11T16:49:22.137Z,5.10
2023-05-11T16:53:28.176Z,4.63
2023-05-11T16:57:33.889Z,4.65
2023-05-11T17:01:38.287Z,5.32
2023-05-11T17:05:43.710Z,4.90
2023-05-11T17:09:59.314Z,4.90
2023-05-11T17:14:42.914Z,5.07
2023-05-11T17:18:52.299Z,5.05
2023-05-11T17:22:59.369Z,5.72
2023-05-11T17:27:22.313Z,5.45
2023-05-11T17:31:34.725Z,5.60
2023-05-11T17:36:11.518Z,5.50
2023-05-11T17:40:25.924Z,5.60
2023-05-11T17:44:37.145Z,4.18
2023-05-11T17:48:53.049Z,4.25
2023-05-11T17:52:58.874Z,4.60
2023-05-11T17:57:07.526Z,4.80
2023-05-11T18:01:25.735Z,3.63
2023-05-11T21:05:01.853Z,11.02
2023-05-11T21:09:04.851Z,11.27
2023-05-11T21:13:07.565Z,11.07
2023-05-11T21:17:10.325Z,11.95
2023-05-11T21:21:14.816Z,10.20
2023-05-11T21:25:17.490Z,10.13
2023-05-11T21:29:20.280Z,12.38
2023-05-11T21:33:23.073Z,12.73
2023-05-11T21:37:27.101Z,12.85
2023-05-11T21:41:29.776Z,11.98
2023-05-11T21:45:32.466Z,12.60
2023-05-11T21:49:36.574Z,13.43
2023-05-11T21:53:40.737Z,13.10
2023-05-11T21:57:43.557Z,13.85
2023-05-11T22:01:46.917Z,13.57
2023-05-11T22:05:49.689Z,12.95
2023-05-11T22:09:53.857Z,13.20
2023-05-11T22:13:56.834Z,14.10
2023-05-11T22:17:59.801Z,13.68
2023-05-11T22:22:02.882Z,13.32
2023-05-11T22:26:07.033Z,12.88
2023-05-11T22:30:11.196Z,13.57
2023-05-11T22:34:13.984Z,13.70
2023-05-11T22:38:16.857Z,13.88
2023-05-11T22:42:21.015Z,13.02
2023-05-11T22:46:24.017Z,13.82
2023-05-11T22:50:27.215Z,13.23
2023-05-11T22:54:30.025Z,13.68
2023-05-11T22:58:35.712Z,12.82
2023-05-11T23:02:38.749Z,12.75
2023-05-11T23:06:41.474Z,13.10
2023-05-11T23:10:44.280Z,12.45
2023-05-11T23:14:48.541Z,12.77
2023-05-11T23:18:51.344Z,12.23
2023-05-11T23:22:54.417Z,11.65
2023-05-11T23:26:57.680Z,11.57
2023-05-11T23:31:01.930Z,11.75
2023-05-11T23:35:05.090Z,10.23
2023-05-11T23:39:07.977Z,11.20
2023-05-11T23:43:10.715Z,11.27
2023-05-11T23:47:14.867Z,12.50
2023-05-11T23:51:17.620Z,12.52
2023-05-11T23:55:20.545Z,11.85
2023-05-11T23:59:29.332Z,11.55
